Impacts METAR Board
IDs:

KPHL - Philadelphia Intl, PA, US

Updated at: 2000 UTC 25 Apr 2018
Potential Impact None Slight Moderate High
Time 25/08Z 25/09Z 25/10Z 25/11Z 25/12Z 25/13Z 25/14Z 25/15Z 25/16Z 25/17Z 25/18Z 25/19Z 25/20Z
Temp55 55 55 55 56 57 58 59 60 62 65 66 68
Dewpt54 54 54 54 55 56 57 58 59 60 60 59 59
Altim29.92 29.89 29.87 29.86 29.85 29.82 29.80 29.78 29.75 29.72 29.71 29.69 29.66
VIS3 5 5 4 3 4 6 3 2.5 5 10 10 10
CIG7 8 8 4 3 4 4 6 5 8 25 24 21
CoverOVCOVCOVCOVCOVCOVCOVCOVCOVCOVCOVCOVCBKN
FltCatIFRIFRIFRLIFRLIFRLIFRLIFRIFRIFRIFRMVFRMVFRMVFR
WX-RA BRBR-RA BRBRBR-DZ BRBR-RA BRBRBR------
WDir1001009080808070708080110120130
WSpd9 10 9 9 10 6 8 9 9 6 6 4 4
WGst-- -- -- -- -- -- -- -- -- -- -- -- --
Raw hourly METARs
KPHL 250754Z 10009KT 3SM -RA BR OVC007 13/12 A2992 RMK AO2 RAE17B50 SLP131 P0006 T01280122 $
KPHL 250903Z 10010KT 5SM BR BKN008 OVC015 13/12 A2989 RMK AO2 RAE02 P0000 T01280122 $
KPHL 251002Z 09009KT 5SM -RA BR BKN008 OVC012 13/12 A2987 RMK AO2 P0000 T01280122 $
KPHL 251104Z 08009KT 4SM BR OVC004 13/12 A2986 RMK AO2 T01280122 $
KPHL 251154Z 08010KT 3SM BR OVC003 13/13 A2985 RMK AO2 DZB09E49 SLP106 P0000 60015 70027 T01330128 10133 20117 56017 $
KPHL 251303Z 08006KT 4SM -DZ BR OVC004 14/13 A2982 RMK AO2 DZB03 P0000 T01390133 $
KPHL 251354Z 07008KT 6SM BR OVC004 14/14 A2980 RMK AO2 DZB03E28 SLP089 P0000 T01440139 $
KPHL 251454Z 07009KT 3SM -RA BR OVC006 15/14 A2978 RMK AO2 RAB52 SLP084 P0000 60000 T01500144 56023 $
KPHL 251554Z 08009KT 2 1/2SM BR BKN005 OVC010 16/15 A2975 RMK AO2 RAE15DZB15E32 SLP073 P0000 T01560150 $
KPHL 251705Z 08006KT 5SM BR BKN008 OVC015 17/16 A2972 RMK AO2 T01670156 $
KPHL 251754Z 11006KT 10SM FEW008 SCT016 OVC025 18/16 A2971 RMK AO2 SLP059 60000 T01830156 10183 20133 56025 $
KPHL 251854Z 12004KT 10SM FEW008 SCT016 OVC024 19/15 A2969 RMK AO2 SLP052 T01890150 $
KPHL 251954Z 13004KT 10SM FEW015 BKN021 BKN250 20/15 A2966 RMK AO2 SLP043 T02000150 $



Page loaded:  20:22 UTC  |   01:22 PM Pacific  |   02:22 PM Mountain  |   03:22 PM Central  |   04:22 PM Eastern

 

ADVISORIES

FORECASTS

FORECASTS

OBSERVATIONS

USER TOOLS

ABOUT US